Time;durP1;ratioP1;P1;durP2;ratioP2;P2;SDS_P1;SDS_P2;PMS_P1;PMS_P2;Temp;Humidity;BMP_temperature;BMP_pressure;BME280_temperature;BME280_humidity;BME280_pressure;Samples;Min_cycle;Max_cycle;Signal;HPM_P1;HPM_P2
2023/08/13 00:02:00;;;;;;;3.00;2.70;;;21.50;99.90;;;;;;4966332;28;20241;-67
2023/08/13 00:04:27;;;;;;;2.85;2.60;;;21.50;99.90;;;;;;4965633;28;20244;-67
2023/08/13 00:06:54;;;;;;;2.60;2.50;;;21.50;99.90;;;;;;4965714;28;20325;-67
2023/08/13 00:09:21;;;;;;;2.58;2.38;;;21.50;99.90;;;;;;4965301;28;20219;-67
2023/08/13 00:11:49;;;;;;;2.80;2.60;;;21.50;99.90;;;;;;4965935;28;20306;-67
2023/08/13 00:14:16;;;;;;;2.60;2.42;;;21.60;99.90;;;;;;4965904;28;20798;-68
2023/08/13 00:16:44;;;;;;;2.40;2.17;;;21.50;99.90;;;;;;4965549;28;20241;-67
2023/08/13 00:19:11;;;;;;;3.08;2.25;;;21.30;99.90;;;;;;4965525;28;20214;-67
2023/08/13 00:21:37;;;;;;;2.83;2.38;;;21.30;99.90;;;;;;4965535;28;20310;-67
2023/08/13 00:24:05;;;;;;;2.78;2.58;;;21.30;99.90;;;;;;4964819;28;20302;-67
2023/08/13 00:26:32;;;;;;;2.75;2.30;;;21.30;99.90;;;;;;4962252;28;20780;-73
2023/08/13 00:29:00;;;;;;;2.33;2.22;;;21.30;99.90;;;;;;4964281;28;20317;-67
2023/08/13 00:31:27;;;;;;;3.83;2.50;;;21.30;99.90;;;;;;4955433;28;20334;-67
2023/08/13 00:33:54;;;;;;;2.70;2.58;;;21.30;99.90;;;;;;4965904;28;20262;-65
2023/08/13 00:36:21;;;;;;;2.63;2.08;;;21.30;99.90;;;;;;4965756;28;20211;-66
2023/08/13 00:38:48;;;;;;;2.60;2.40;;;21.30;99.90;;;;;;4965967;28;20305;-65
2023/08/13 00:41:15;;;;;;;2.67;2.47;;;21.30;99.90;;;;;;4966111;28;20323;-66
2023/08/13 00:43:41;;;;;;;2.40;2.30;;;21.30;99.90;;;;;;4966136;28;20534;-66
2023/08/13 00:46:11;;;;;;;2.47;2.38;;;21.30;99.90;;;;;;4966069;28;20298;-66
2023/08/13 00:48:39;;;;;;;2.60;2.40;;;21.30;99.90;;;;;;4966251;28;20219;-66
2023/08/13 00:51:07;;;;;;;3.22;2.15;;;21.30;99.90;;;;;;4966170;28;20314;-66
2023/08/13 00:53:39;;;;;;;2.70;2.60;;;21.30;99.90;;;;;;4965935;28;20219;-66
2023/08/13 00:56:06;;;;;;;2.78;2.58;;;21.30;99.90;;;;;;4966125;28;20290;-66
2023/08/13 00:58:33;;;;;;;3.10;2.60;;;21.30;99.90;;;;;;4966238;28;20215;-66
2023/08/13 01:01:00;;;;;;;2.63;2.53;;;21.30;99.90;;;;;;4965907;28;20294;-66
2023/08/13 01:03:29;;;;;;;2.97;2.47;;;21.30;99.90;;;;;;4965173;28;20234;-66
2023/08/13 01:06:03;;;;;;;3.55;2.72;;;21.30;99.90;;;;;;4964838;28;20729;-66
2023/08/13 01:08:39;;;;;;;2.88;2.67;;;21.20;99.90;;;;;;4965242;28;20257;-67
2023/08/13 01:11:10;;;;;;;2.53;2.35;;;21.10;99.90;;;;;;4969045;28;20278;-67
2023/08/13 01:13:42;;;;;;;2.88;2.70;;;21.20;99.90;;;;;;4969637;28;20230;-67
2023/08/13 01:16:10;;;;;;;4.13;2.70;;;21.20;99.90;;;;;;4968748;28;20318;-66
2023/08/13 01:18:41;;;;;;;2.72;2.53;;;21.20;99.90;;;;;;4968749;28;20673;-66
2023/08/13 01:21:08;;;;;;;3.38;3.00;;;21.10;99.90;;;;;;4968775;28;20416;-66
2023/08/13 01:23:36;;;;;;;3.20;2.80;;;21.00;99.90;;;;;;4968658;28;20753;-66
2023/08/13 01:26:10;;;;;;;3.13;2.92;;;20.80;99.90;;;;;;4968575;28;20325;-66
2023/08/13 01:28:44;;;;;;;4.10;3.33;;;20.70;99.90;;;;;;4968691;28;20222;-66
2023/08/13 01:31:15;;;;;;;3.00;2.80;;;20.70;99.90;;;;;;4954979;28;20306;-66
2023/08/13 01:33:44;;;;;;;3.03;2.88;;;20.70;99.90;;;;;;4968800;28;20301;-66
2023/08/13 01:36:14;;;;;;;3.30;3.00;;;20.70;99.90;;;;;;4968309;28;20298;-66
2023/08/13 01:38:43;;;;;;;3.10;2.78;;;20.80;99.90;;;;;;4968740;28;20257;-66
2023/08/13 01:41:10;;;;;;;3.17;2.90;;;20.80;99.90;;;;;;4968492;28;20686;-66
2023/08/13 01:43:37;;;;;;;3.92;3.30;;;20.80;99.90;;;;;;4968492;28;20301;-66
2023/08/13 01:46:04;;;;;;;3.90;3.60;;;20.70;99.90;;;;;;4968419;28;20221;-66
2023/08/13 01:48:31;;;;;;;3.13;2.92;;;20.60;99.90;;;;;;4968291;28;20866;-66
2023/08/13 01:50:58;;;;;;;4.22;3.33;;;20.60;99.90;;;;;;4968079;28;20815;-66
2023/08/13 01:53:24;;;;;;;3.05;2.85;;;20.60;99.90;;;;;;4967714;28;20219;-66
2023/08/13 01:55:53;;;;;;;2.85;2.65;;;20.60;99.90;;;;;;4968070;28;20329;-66
2023/08/13 01:58:20;;;;;;;3.30;2.90;;;20.70;99.90;;;;;;4968052;28;20903;-66
2023/08/13 02:00:46;;;;;;;3.22;3.00;;;20.70;99.90;;;;;;4967583;28;20931;-66
2023/08/13 02:03:13;;;;;;;3.00;2.85;;;20.70;99.90;;;;;;4967950;28;20306;-66
2023/08/13 02:05:40;;;;;;;3.00;2.80;;;20.70;99.90;;;;;;4967923;28;20217;-66
2023/08/13 02:08:07;;;;;;;3.30;3.10;;;20.70;99.90;;;;;;4968079;28;20253;-66
2023/08/13 02:10:34;;;;;;;3.50;3.17;;;20.70;99.90;;;;;;4968173;28;20317;-66
2023/08/13 02:13:02;;;;;;;2.83;2.63;;;20.50;99.90;;;;;;4968119;28;20221;-66
2023/08/13 02:15:29;;;;;;;3.30;3.00;;;20.60;99.90;;;;;;4967941;28;20227;-66
2023/08/13 02:17:56;;;;;;;3.40;3.10;;;20.50;99.90;;;;;;4968275;28;20225;-66
2023/08/13 02:20:22;;;;;;;2.97;2.75;;;20.50;99.90;;;;;;4967452;28;20341;-66
2023/08/13 02:22:49;;;;;;;3.30;3.10;;;20.60;99.90;;;;;;4968207;28;20233;-66
2023/08/13 02:25:16;;;;;;;2.93;2.77;;;20.60;99.90;;;;;;4967753;28;20214;-66
2023/08/13 02:27:43;;;;;;;3.13;2.83;;;20.60;99.90;;;;;;4967860;28;20325;-66
2023/08/13 02:30:13;;;;;;;2.70;2.60;;;20.60;99.90;;;;;;4976519;28;20306;-66
2023/08/13 02:32:40;;;;;;;4.30;3.10;;;20.70;99.90;;;;;;4967108;28;20245;-66
2023/08/13 02:35:07;;;;;;;2.97;2.78;;;20.60;99.90;;;;;;4967282;28;20285;-67
2023/08/13 02:37:35;;;;;;;3.20;3.00;;;20.70;99.90;;;;;;4967441;28;20233;-66
2023/08/13 02:40:02;;;;;;;3.22;3.03;;;20.70;99.90;;;;;;4967319;28;20238;-66
2023/08/13 02:42:29;;;;;;;3.53;3.20;;;20.70;99.90;;;;;;4966931;28;20294;-66
2023/08/13 02:44:56;;;;;;;3.28;2.97;;;20.70;99.90;;;;;;4967011;28;20309;-66
2023/08/13 02:47:24;;;;;;;4.68;3.00;;;20.60;99.90;;;;;;4966831;28;20244;-66
2023/08/13 02:49:51;;;;;;;3.78;2.55;;;20.60;99.90;;;;;;4966886;28;20210;-66
2023/08/13 02:52:19;;;;;;;5.00;2.80;;;20.60;99.90;;;;;;4966679;28;20948;-66
2023/08/13 02:54:46;;;;;;;2.95;2.80;;;20.60;99.90;;;;;;4966814;28;20749;-67
2023/08/13 02:57:12;;;;;;;3.15;2.90;;;20.60;99.90;;;;;;4966574;28;20291;-66
2023/08/13 02:59:39;;;;;;;3.00;2.85;;;20.60;99.90;;;;;;4967046;28;20298;-66
2023/08/13 03:02:06;;;;;;;2.95;2.75;;;20.50;99.90;;;;;;4967360;28;20297;-66
2023/08/13 03:04:34;;;;;;;3.63;3.33;;;20.50;99.90;;;;;;4966897;28;20578;-66
2023/08/13 03:07:01;;;;;;;3.25;2.90;;;20.50;99.90;;;;;;4966790;28;20214;-66
2023/08/13 03:09:28;;;;;;;2.90;2.70;;;20.50;99.90;;;;;;4966516;28;20207;-66
2023/08/13 03:11:55;;;;;;;3.10;2.90;;;20.50;99.90;;;;;;4966851;28;20306;-66
2023/08/13 03:14:22;;;;;;;3.47;3.22;;;20.50;99.90;;;;;;4966476;28;20302;-66
2023/08/13 03:16:49;;;;;;;2.88;2.70;;;20.40;99.90;;;;;;4966827;28;20310;-66
2023/08/13 03:19:15;;;;;;;3.47;3.00;;;20.40;99.90;;;;;;4966856;28;20320;-66
2023/08/13 03:21:44;;;;;;;3.13;3.00;;;20.40;99.90;;;;;;4966875;28;20207;-66
2023/08/13 03:24:10;;;;;;;2.93;2.73;;;20.40;99.90;;;;;;4966897;28;20526;-66
2023/08/13 03:26:37;;;;;;;3.30;3.10;;;20.40;99.90;;;;;;4967226;28;20210;-66
2023/08/13 03:29:04;;;;;;;2.95;2.75;;;20.40;99.90;;;;;;4966413;28;20340;-66
2023/08/13 03:31:31;;;;;;;3.30;3.00;;;20.40;99.90;;;;;;4966448;28;20338;-66
2023/08/13 03:33:59;;;;;;;3.25;2.70;;;20.30;99.90;;;;;;4966787;28;20211;-66
2023/08/13 03:36:26;;;;;;;3.55;3.05;;;20.30;99.90;;;;;;4966320;28;20217;-66
2023/08/13 03:38:54;;;;;;;4.70;3.13;;;20.30;99.90;;;;;;4966472;28;20210;-66
2023/08/13 03:41:21;;;;;;;2.92;2.80;;;20.30;99.90;;;;;;4966136;28;20225;-66
2023/08/13 03:43:48;;;;;;;4.20;2.60;;;20.40;99.90;;;;;;4966578;28;20581;-66
2023/08/13 03:46:15;;;;;;;3.13;2.90;;;20.30;99.90;;;;;;4965977;28;20745;-66
2023/08/13 03:48:41;;;;;;;2.90;2.80;;;20.30;99.90;;;;;;4965909;28;20318;-66
2023/08/13 03:51:08;;;;;;;3.25;3.03;;;20.30;99.90;;;;;;4966035;28;20631;-66
2023/08/13 03:53:35;;;;;;;3.00;2.90;;;20.30;99.90;;;;;;4965918;28;20209;-66
2023/08/13 03:56:07;;;;;;;3.38;3.17;;;20.30;99.90;;;;;;4966081;28;20246;-66
2023/08/13 03:58:35;;;;;;;3.40;3.20;;;20.20;99.90;;;;;;4966115;28;20235;-66
2023/08/13 04:01:05;;;;;;;4.87;3.07;;;20.10;99.90;;;;;;4966203;28;20219;-66
2023/08/13 04:03:32;;;;;;;3.67;3.37;;;20.10;99.90;;;;;;4966548;28;20313;-65
2023/08/13 04:05:59;;;;;;;4.25;2.80;;;20.10;99.90;;;;;;4966256;28;20285;-65
2023/08/13 04:08:26;;;;;;;3.30;3.00;;;20.20;99.90;;;;;;4966019;28;20244;-65
2023/08/13 04:10:53;;;;;;;3.90;3.50;;;20.20;99.90;;;;;;4960049;28;20211;-66
2023/08/13 04:13:22;;;;;;;3.27;3.07;;;20.20;99.90;;;;;;4965656;28;20233;-66
2023/08/13 04:15:48;;;;;;;3.10;2.90;;;20.20;99.90;;;;;;4965885;28;20314;-66
2023/08/13 04:18:15;;;;;;;2.93;2.67;;;20.20;99.90;;;;;;4965967;28;20293;-66
2023/08/13 04:20:42;;;;;;;2.90;2.70;;;20.20;99.90;;;;;;4965790;28;20207;-66
2023/08/13 04:23:09;;;;;;;3.20;3.00;;;20.20;99.90;;;;;;4984797;28;20241;-66
2023/08/13 04:25:36;;;;;;;3.47;2.83;;;20.20;99.90;;;;;;4952333;28;20211;-66
2023/08/13 04:28:03;;;;;;;3.53;3.33;;;20.20;99.90;;;;;;4962992;28;20396;-66
2023/08/13 04:30:31;;;;;;;6.40;5.77;;;20.20;99.90;;;;;;4966150;28;20318;-66
2023/08/13 04:32:58;;;;;;;7.30;6.60;;;20.20;99.90;;;;;;4965572;28;20242;-66
2023/08/13 04:35:25;;;;;;;8.52;7.68;;;20.20;99.90;;;;;;4965693;28;20207;-66
2023/08/13 04:37:53;;;;;;;6.37;5.87;;;20.20;99.90;;;;;;4965645;28;20297;-66
2023/08/13 04:40:20;;;;;;;5.10;4.70;;;20.00;99.90;;;;;;4965794;28;20231;-66
2023/08/13 04:42:47;;;;;;;4.27;3.97;;;19.90;99.90;;;;;;4965830;28;20657;-66
2023/08/13 04:45:15;;;;;;;4.07;3.83;;;19.90;99.90;;;;;;4967886;28;20700;-66
2023/08/13 04:47:43;;;;;;;3.77;3.47;;;19.90;99.90;;;;;;4969880;28;20692;-66
2023/08/13 04:50:10;;;;;;;2.90;2.70;;;19.90;99.90;;;;;;4969170;28;20301;-66
2023/08/13 04:52:37;;;;;;;3.15;2.85;;;20.00;99.90;;;;;;4969529;28;20207;-66
2023/08/13 04:55:05;;;;;;;3.03;2.83;;;20.00;99.90;;;;;;4969593;28;20289;-66
2023/08/13 04:57:32;;;;;;;3.13;2.87;;;20.00;99.90;;;;;;4969248;28;20302;-66
2023/08/13 04:59:59;;;;;;;3.13;2.83;;;19.90;99.90;;;;;;4969545;28;20321;-67
2023/08/13 05:02:26;;;;;;;2.93;2.83;;;19.90;99.90;;;;;;4969087;28;20215;-66
2023/08/13 05:04:54;;;;;;;3.10;2.90;;;20.00;99.90;;;;;;4969299;28;20207;-66
2023/08/13 05:07:22;;;;;;;2.90;2.70;;;19.90;99.90;;;;;;4969005;28;20221;-66
2023/08/13 05:09:49;;;;;;;3.20;3.00;;;19.80;99.90;;;;;;4969355;28;20329;-66
2023/08/13 05:12:16;;;;;;;3.03;2.77;;;19.90;99.90;;;;;;4950217;28;20218;-66
2023/08/13 05:14:43;;;;;;;3.63;2.93;;;20.00;99.90;;;;;;4967909;28;20249;-66
2023/08/13 05:17:19;;;;;;;3.22;2.92;;;20.10;99.90;;;;;;4968975;28;20294;-66
2023/08/13 05:19:46;;;;;;;3.23;2.93;;;20.20;99.90;;;;;;4969326;28;20278;-66
2023/08/13 05:22:15;;;;;;;3.28;2.60;;;20.30;99.90;;;;;;4950047;28;20212;-66
2023/08/13 05:24:42;;;;;;;3.63;2.53;;;20.40;99.90;;;;;;4951118;28;20223;-66
2023/08/13 05:27:09;;;;;;;3.30;2.80;;;20.40;99.90;;;;;;4968848;28;20305;-66
2023/08/13 05:29:36;;;;;;;6.47;2.58;;;20.50;99.90;;;;;;4969190;28;20353;-66
2023/08/13 05:32:03;;;;;;;3.20;2.80;;;20.50;99.90;;;;;;4968757;28;20618;-66
2023/08/13 05:34:30;;;;;;;2.33;2.23;;;20.50;99.90;;;;;;4968027;28;20684;-66
2023/08/13 05:36:56;;;;;;;3.53;3.00;;;20.20;99.90;;;;;;4968129;28;20692;-66
2023/08/13 05:39:25;;;;;;;3.03;2.77;;;20.10;99.90;;;;;;4968020;28;20761;-66
2023/08/13 05:41:52;;;;;;;2.80;2.40;;;20.10;99.90;;;;;;4968288;28;20827;-66
2023/08/13 05:44:19;;;;;;;3.15;2.35;;;20.20;99.90;;;;;;4968377;28;20311;-66
2023/08/13 05:46:45;;;;;;;2.80;2.63;;;20.30;99.90;;;;;;4968465;28;20330;-66
2023/08/13 05:49:12;;;;;;;2.60;2.40;;;20.40;99.90;;;;;;4968420;28;20238;-66
2023/08/13 05:51:39;;;;;;;2.95;2.00;;;20.50;99.90;;;;;;4968725;28;20211;-66
2023/08/13 05:54:08;;;;;;;3.88;2.53;;;20.50;99.90;;;;;;4968689;28;20306;-66
2023/08/13 05:56:37;;;;;;;2.10;2.00;;;20.40;99.90;;;;;;4967909;28;20207;-66
2023/08/13 05:59:04;;;;;;;3.40;2.40;;;20.40;99.90;;;;;;4968440;28;20207;-65
2023/08/13 06:01:31;;;;;;;2.40;2.25;;;20.40;99.90;;;;;;4968320;28;20321;-65
2023/08/13 06:03:58;;;;;;;2.33;2.22;;;20.50;99.90;;;;;;4952250;28;20294;-66
2023/08/13 06:06:25;;;;;;;3.00;2.38;;;20.50;99.90;;;;;;4967949;28;20211;-66
2023/08/13 06:08:52;;;;;;;2.90;2.30;;;20.30;99.90;;;;;;4967758;28;20245;-66
2023/08/13 06:11:18;;;;;;;3.97;2.33;;;20.20;99.90;;;;;;4967390;28;21068;-65
2023/08/13 06:13:47;;;;;;;2.97;2.10;;;20.10;99.90;;;;;;4967804;28;20232;-65
2023/08/13 06:16:14;;;;;;;4.73;2.13;;;20.10;99.90;;;;;;4968098;28;20217;-66
2023/08/13 06:18:41;;;;;;;2.72;2.05;;;20.20;99.90;;;;;;4967768;28;20218;-66
2023/08/13 06:21:08;;;;;;;2.40;2.13;;;20.30;99.90;;;;;;4967575;28;20297;-66
2023/08/13 06:23:35;;;;;;;4.28;2.20;;;20.40;99.90;;;;;;4965871;28;20238;-66
2023/08/13 06:26:02;;;;;;;3.22;2.25;;;20.50;99.90;;;;;;4957206;28;20211;-66
2023/08/13 06:28:29;;;;;;;2.95;1.80;;;20.70;99.90;;;;;;4955423;28;20238;-66
2023/08/13 06:30:57;;;;;;;3.60;1.98;;;20.70;99.90;;;;;;4967781;28;20221;-66
2023/08/13 06:33:24;;;;;;;2.50;2.30;;;20.80;99.90;;;;;;4929203;29;20216;-66
2023/08/13 06:35:51;;;;;;;3.13;2.50;;;20.90;99.90;;;;;;4928499;29;20208;-66
2023/08/13 06:38:18;;;;;;;5.22;2.13;;;21.00;99.90;;;;;;4928692;29;20691;-65
2023/08/13 06:40:45;;;;;;;2.85;2.20;;;21.10;99.90;;;;;;4921539;29;20290;-65
2023/08/13 06:43:13;;;;;;;3.80;2.30;;;21.10;99.90;;;;;;4925731;29;20216;-65
2023/08/13 06:45:40;;;;;;;2.45;2.15;;;21.20;99.90;;;;;;4918295;29;20219;-65
2023/08/13 06:48:08;;;;;;;3.92;2.47;;;21.20;99.90;;;;;;4928843;29;20216;-64
2023/08/13 06:50:35;;;;;;;4.97;2.05;;;21.30;99.90;;;;;;4928219;29;20212;-65
2023/08/13 06:53:02;;;;;;;2.20;2.10;;;21.30;99.90;;;;;;4924803;29;20232;-65
2023/08/13 06:55:29;;;;;;;2.58;1.73;;;21.30;99.90;;;;;;4925219;29;20216;-65
2023/08/13 06:57:56;;;;;;;2.30;1.90;;;21.30;99.90;;;;;;4918140;29;20212;-65
2023/08/13 07:00:23;;;;;;;2.90;2.08;;;21.30;99.90;;;;;;4926933;29;20303;-66
2023/08/13 07:02:50;;;;;;;5.03;2.25;;;21.40;99.90;;;;;;4928234;29;20290;-65
2023/08/13 07:05:19;;;;;;;3.20;2.17;;;21.40;99.90;;;;;;4928337;29;20209;-65
2023/08/13 07:07:50;;;;;;;2.30;2.10;;;21.40;99.90;;;;;;4927091;29;20208;-65
2023/08/13 07:10:16;;;;;;;5.85;1.92;;;21.40;99.90;;;;;;4930442;29;20240;-65
2023/08/13 07:12:43;;;;;;;2.33;2.00;;;21.40;99.90;;;;;;4928408;29;20312;-65
2023/08/13 07:15:11;;;;;;;2.58;2.00;;;21.40;99.90;;;;;;4912879;29;20247;-65
2023/08/13 07:17:38;;;;;;;5.93;2.22;;;21.50;99.90;;;;;;4925456;29;20299;-65
2023/08/13 07:20:09;;;;;;;6.55;2.08;;;21.50;99.90;;;;;;4927014;29;20319;-65
2023/08/13 07:22:38;;;;;;;4.20;2.20;;;21.50;99.90;;;;;;4926897;29;20200;-65
2023/08/13 07:25:06;;;;;;;2.65;2.00;;;21.50;99.90;;;;;;4928336;29;20207;-66
2023/08/13 07:27:33;;;;;;;2.90;1.88;;;21.60;99.90;;;;;;4927514;29;20239;-65
2023/08/13 07:30:00;;;;;;;4.03;2.03;;;21.60;99.90;;;;;;4927591;29;20264;-65
2023/08/13 07:32:27;;;;;;;5.05;2.30;;;21.70;99.90;;;;;;4950444;28;20305;-65
2023/08/13 07:34:54;;;;;;;3.00;2.03;;;21.70;99.90;;;;;;4965516;28;20294;-65
2023/08/13 07:37:22;;;;;;;4.05;2.08;;;21.70;99.90;;;;;;4965472;28;20217;-65
2023/08/13 07:39:50;;;;;;;4.15;2.10;;;21.80;99.90;;;;;;4966146;28;20211;-65
2023/08/13 07:42:18;;;;;;;2.72;2.25;;;21.80;99.90;;;;;;4966046;28;20215;-65
2023/08/13 07:44:45;;;;;;;6.00;2.53;;;21.90;99.90;;;;;;4966315;28;20309;-65
2023/08/13 07:47:12;;;;;;;2.95;2.03;;;21.90;99.90;;;;;;4966098;28;20206;-65
2023/08/13 07:49:38;;;;;;;3.20;1.80;;;21.90;99.90;;;;;;4966455;28;20245;-65
2023/08/13 07:52:06;;;;;;;2.65;2.13;;;22.00;99.90;;;;;;4966611;28;20807;-65
2023/08/13 07:54:33;;;;;;;3.72;1.98;;;22.00;99.90;;;;;;4965962;28;20243;-66
2023/08/13 07:57:01;;;;;;;3.85;1.80;;;22.10;99.90;;;;;;4966426;28;20207;-65
2023/08/13 07:59:28;;;;;;;3.30;2.00;;;22.10;99.90;;;;;;4966494;28;20217;-65
2023/08/13 08:01:54;;;;;;;4.50;2.20;;;22.10;99.90;;;;;;4965968;28;20321;-65
2023/08/13 08:04:21;;;;;;;4.80;2.00;;;22.20;99.90;;;;;;4966144;28;20206;-65
2023/08/13 08:06:48;;;;;;;3.10;2.08;;;22.30;99.90;;;;;;4974769;28;20228;-65
2023/08/13 08:09:15;;;;;;;6.28;2.38;;;22.30;99.90;;;;;;4977459;28;20245;-65
2023/08/13 08:11:42;;;;;;;8.35;2.40;;;22.30;99.90;;;;;;4966111;28;20241;-65
2023/08/13 08:14:10;;;;;;;3.75;2.08;;;22.40;99.90;;;;;;4966119;28;20786;-65
2023/08/13 08:16:37;;;;;;;4.60;2.13;;;22.40;99.90;;;;;;4966007;28;20231;-65
2023/08/13 08:19:05;;;;;;;3.08;2.30;;;22.50;99.90;;;;;;4968243;28;20226;-65
2023/08/13 08:21:32;;;;;;;4.13;2.08;;;22.50;99.90;;;;;;4969709;28;20207;-65
2023/08/13 08:24:00;;;;;;;6.05;2.35;;;22.60;99.90;;;;;;4969788;28;20207;-66
2023/08/13 08:26:27;;;;;;;4.20;2.03;;;22.60;99.90;;;;;;4969613;28;20717;-65
2023/08/13 08:28:54;;;;;;;5.82;2.08;;;22.70;99.90;;;;;;4969683;28;20239;-65
2023/08/13 08:31:22;;;;;;;5.35;2.42;;;22.70;99.90;;;;;;4969537;28;20241;-66
2023/08/13 08:33:49;;;;;;;4.00;2.45;;;22.70;99.90;;;;;;4969411;28;20201;-65
2023/08/13 08:36:16;;;;;;;4.47;2.20;;;22.80;99.90;;;;;;4969410;28;20289;-65
2023/08/13 08:38:43;;;;;;;5.32;2.40;;;22.80;99.90;;;;;;4969506;28;20318;-65
2023/08/13 08:41:12;;;;;;;2.35;1.92;;;22.90;99.90;;;;;;4969460;28;20222;-66
2023/08/13 08:43:39;;;;;;;4.15;2.30;;;22.90;99.90;;;;;;4969684;28;20681;-65
2023/08/13 08:46:08;;;;;;;4.85;2.20;;;23.00;99.90;;;;;;4969418;28;20220;-65
2023/08/13 08:48:38;;;;;;;5.85;2.40;;;23.00;99.90;;;;;;4970040;28;20238;-65
2023/08/13 08:51:05;;;;;;;3.20;2.17;;;23.10;99.90;;;;;;4969383;28;20317;-65
2023/08/13 08:53:34;;;;;;;6.25;2.38;;;23.10;99.90;;;;;;4969205;28;20211;-66
2023/08/13 08:56:01;;;;;;;4.65;2.28;;;23.10;99.90;;;;;;4969486;28;20223;-65
2023/08/13 08:58:28;;;;;;;6.43;2.20;;;23.20;99.90;;;;;;4968915;28;20221;-65
2023/08/13 09:01:00;;;;;;;5.72;2.70;;;23.20;99.90;;;;;;4968961;28;20653;-65
2023/08/13 09:03:27;;;;;;;5.80;4.32;;;23.20;99.90;;;;;;4981130;28;20213;-65
2023/08/13 09:05:56;;;;;;;5.55;2.80;;;23.30;99.90;;;;;;4979261;28;20293;-66
2023/08/13 09:08:23;;;;;;;2.67;1.98;;;23.40;99.90;;;;;;4949436;28;20886;-65
2023/08/13 09:10:50;;;;;;;5.07;2.40;;;23.40;99.90;;;;;;4957497;28;20330;-65
2023/08/13 09:13:17;;;;;;;3.70;2.20;;;23.50;99.90;;;;;;4968767;28;20297;-65
2023/08/13 09:15:44;;;;;;;4.20;2.30;;;23.50;99.90;;;;;;4968542;28;20233;-65
2023/08/13 09:18:12;;;;;;;6.43;2.00;;;23.60;99.90;;;;;;4968779;28;20310;-65
2023/08/13 09:20:45;;;;;;;4.38;2.08;;;23.60;99.90;;;;;;4968636;28;20221;-65
2023/08/13 09:23:21;;;;;;;4.88;2.03;;;23.70;99.90;;;;;;4968180;28;20203;-66
2023/08/13 09:25:52;;;;;;;4.32;2.10;;;23.80;99.90;;;;;;4969027;28;20258;-66
2023/08/13 09:28:19;;;;;;;4.13;2.00;;;23.80;99.90;;;;;;4968576;28;20310;-66
2023/08/13 09:30:46;;;;;;;4.38;2.20;;;23.90;99.90;;;;;;4967857;28;20238;-65
2023/08/13 09:33:15;;;;;;;5.85;1.90;;;24.00;99.90;;;;;;4968246;28;20768;-65
2023/08/13 09:35:43;;;;;;;4.18;2.20;;;24.00;99.90;;;;;;4968490;28;20753;-65
2023/08/13 09:38:09;;;;;;;6.57;2.13;;;24.10;99.90;;;;;;4967913;28;20732;-66
2023/08/13 09:40:38;;;;;;;4.97;2.10;;;24.20;99.90;;;;;;4968486;28;20207;-65
2023/08/13 09:43:09;;;;;;;3.25;2.15;;;24.30;99.90;;;;;;4968461;28;20583;-66
2023/08/13 09:45:36;;;;;;;3.85;2.13;;;24.30;99.90;;;;;;4968582;28;20195;-65
2023/08/13 09:48:05;;;;;;;3.83;2.20;;;24.30;99.90;;;;;;4968442;28;20297;-66
2023/08/13 09:50:35;;;;;;;2.95;1.95;;;24.40;99.90;;;;;;4968143;28;20250;-66
2023/08/13 09:53:03;;;;;;;4.43;2.17;;;24.40;99.90;;;;;;4967757;28;20203;-65
2023/08/13 09:55:35;;;;;;;5.00;2.28;;;24.50;99.90;;;;;;4968208;28;20725;-65
2023/08/13 09:58:08;;;;;;;3.92;2.40;;;24.50;99.90;;;;;;4967585;28;20215;-66
2023/08/13 10:00:35;;;;;;;3.05;1.98;;;24.60;99.90;;;;;;4981016;28;20329;-65
2023/08/13 10:03:02;;;;;;;2.67;1.90;;;24.60;99.90;;;;;;4967680;28;20310;-65
2023/08/13 10:05:30;;;;;;;2.25;2.05;;;24.60;99.90;;;;;;4967179;28;20306;-65
2023/08/13 10:07:58;;;;;;;3.13;2.15;;;24.60;99.90;;;;;;4948367;28;20208;-65
2023/08/13 10:10:26;;;;;;;6.70;2.47;;;24.60;99.90;;;;;;4952739;28;20238;-65
2023/08/13 10:12:53;;;;;;;3.60;1.92;;;24.60;99.90;;;;;;4967662;28;20298;-65
2023/08/13 10:15:22;;;;;;;3.58;1.83;;;24.70;99.90;;;;;;4967670;28;20317;-65
2023/08/13 10:17:49;;;;;;;2.05;1.88;;;24.80;99.90;;;;;;4967180;28;20203;-65
2023/08/13 10:20:18;;;;;;;2.90;2.25;;;25.00;99.90;;;;;;4967366;28;20238;-65
2023/08/13 10:22:47;;;;;;;3.90;1.98;;;25.10;99.90;;;;;;4967742;28;20649;-65
2023/08/13 10:25:27;;;;;;;4.18;2.15;;;25.10;99.90;;;;;;4967477;28;20215;-65
2023/08/13 10:27:55;;;;;;;3.97;2.50;;;25.10;99.90;;;;;;4967573;28;20808;-65
2023/08/13 10:30:24;;;;;;;3.83;2.15;;;25.20;99.90;;;;;;4967599;28;20434;-65
2023/08/13 10:32:54;;;;;;;5.57;2.25;;;25.30;99.90;;;;;;4967468;28;20242;-65
2023/08/13 10:35:23;;;;;;;3.03;1.90;;;25.20;99.90;;;;;;4967155;28;20661;-66
2023/08/13 10:37:52;;;;;;;3.22;2.20;;;25.20;99.90;;;;;;4967132;28;20670;-65
2023/08/13 10:40:19;;;;;;;5.35;2.17;;;25.20;99.90;;;;;;4967291;28;20236;-66
2023/08/13 10:42:53;;;;;;;3.03;2.00;;;25.30;99.90;;;;;;4966165;28;20233;-65
2023/08/13 10:45:24;;;;;;;2.70;2.10;;;25.40;99.90;;;;;;4967150;28;20194;-66
2023/08/13 10:47:53;;;;;;;4.15;2.13;;;25.60;99.90;;;;;;4967419;28;20198;-66
2023/08/13 10:50:32;;;;;;;3.30;1.85;;;25.80;99.90;;;;;;4967263;28;20241;-65
2023/08/13 10:53:04;;;;;;;4.72;2.00;;;25.90;99.90;;;;;;4967070;28;20269;-65
2023/08/13 10:55:33;;;;;;;4.55;2.22;;;25.90;99.90;;;;;;4964649;28;20260;-65
2023/08/13 10:58:00;;;;;;;4.65;2.05;;;26.10;99.90;;;;;;4966102;28;20591;-65
2023/08/13 11:00:29;;;;;;;3.10;2.20;;;26.20;99.90;;;;;;4948282;28;20302;-65
2023/08/13 11:03:00;;;;;;;4.10;2.47;;;25.90;99.90;;;;;;4948251;28;20294;-66
2023/08/13 11:05:27;;;;;;;6.50;2.40;;;25.90;99.90;;;;;;4964293;28;20199;-66
2023/08/13 11:07:55;;;;;;;3.50;2.17;;;25.90;99.90;;;;;;4966712;28;20218;-66
2023/08/13 11:10:22;;;;;;;3.97;2.10;;;26.00;99.90;;;;;;4966534;28;20669;-66
2023/08/13 11:12:50;;;;;;;2.65;2.33;;;26.20;99.90;;;;;;4966916;28;20235;-65
2023/08/13 11:15:17;;;;;;;5.20;1.92;;;26.20;99.90;;;;;;4966067;28;20230;-65
2023/08/13 11:17:47;;;;;;;2.92;2.08;;;26.40;99.90;;;;;;4966350;28;20704;-66
2023/08/13 11:20:18;;;;;;;5.38;2.38;;;26.50;99.90;;;;;;4966268;28;20206;-66
2023/08/13 11:22:45;;;;;;;3.40;2.13;;;26.10;99.90;;;;;;4966237;28;20195;-65
2023/08/13 11:25:13;;;;;;;4.85;2.53;;;26.00;99.90;;;;;;4966595;28;20238;-65
2023/08/13 11:27:40;;;;;;;3.90;2.33;;;26.00;99.90;;;;;;4966478;28;20202;-66
2023/08/13 11:30:08;;;;;;;5.13;2.22;;;26.00;99.90;;;;;;4966152;28;20235;-65
2023/08/13 11:32:36;;;;;;;5.70;2.15;;;26.20;99.90;;;;;;4966158;28;20417;-65
2023/08/13 11:35:09;;;;;;;2.42;2.22;;;26.30;99.90;;;;;;4966217;28;20207;-66
2023/08/13 11:37:37;;;;;;;2.17;1.98;;;26.60;99.90;;;;;;4966132;28;20209;-66
2023/08/13 11:40:05;;;;;;;3.83;1.90;;;26.80;99.90;;;;;;4965447;28;20289;-66
2023/08/13 11:42:32;;;;;;;2.33;2.13;;;26.90;99.90;;;;;;4966125;28;20242;-66
2023/08/13 11:44:59;;;;;;;3.65;2.00;;;27.20;99.90;;;;;;4965931;28;20305;-66
2023/08/13 11:47:27;;;;;;;2.55;2.05;;;27.30;99.90;;;;;;4965630;28;20820;-66
2023/08/13 11:49:57;;;;;;;6.95;2.70;;;27.30;99.90;;;;;;4966020;28;20261;-66
2023/08/13 11:52:25;;;;;;;4.03;2.03;;;27.30;99.90;;;;;;4965547;28;20310;-66
2023/08/13 11:54:52;;;;;;;3.83;2.20;;;27.40;99.90;;;;;;4965972;28;20215;-66
2023/08/13 11:57:21;;;;;;;3.58;2.30;;;27.60;99.90;;;;;;4966079;28;20232;-65
2023/08/13 11:59:49;;;;;;;4.22;2.10;;;27.30;99.90;;;;;;4966165;28;20714;-66
2023/08/13 12:02:16;;;;;;;3.50;2.10;;;27.40;99.90;;;;;;4965767;28;20211;-66
2023/08/13 12:04:47;;;;;;;4.10;2.25;;;27.50;99.90;;;;;;4965687;28;20321;-66
2023/08/13 12:07:14;;;;;;;3.03;2.10;;;27.60;99.90;;;;;;4964798;28;20214;-66
2023/08/13 12:09:42;;;;;;;4.60;2.28;;;27.90;99.90;;;;;;4964160;28;20709;-66
2023/08/13 12:12:09;;;;;;;6.30;2.80;;;28.00;99.90;;;;;;4965952;28;20274;-66
2023/08/13 12:14:44;;;;;;;1.90;1.80;;;28.20;99.90;;;;;;4965638;28;20313;-66
2023/08/13 12:17:11;;;;;;;6.22;2.17;;;28.40;99.90;;;;;;4965671;28;20653;-66
2023/08/13 12:19:37;;;;;;;3.83;2.25;;;28.50;99.80;;;;;;4966087;28;20701;-66
2023/08/13 12:22:05;;;;;;;5.97;2.28;;;28.60;99.30;;;;;;4965408;28;20939;-67
2023/08/13 12:24:31;;;;;;;3.90;2.03;;;28.70;99.90;;;;;;4965626;28;20319;-66
2023/08/13 12:27:00;;;;;;;2.00;1.90;;;28.70;99.90;;;;;;4965866;28;20312;-66
2023/08/13 12:29:27;;;;;;;3.47;2.20;;;28.60;99.90;;;;;;4965513;28;20211;-66
2023/08/13 12:31:53;;;;;;;3.75;2.30;;;28.70;99.90;;;;;;4965003;28;20250;-66
2023/08/13 12:34:20;;;;;;;3.15;2.30;;;28.60;98.50;;;;;;4965449;28;20217;-66
2023/08/13 12:36:47;;;;;;;2.13;1.92;;;28.30;98.30;;;;;;4960094;28;20234;-66
2023/08/13 12:39:14;;;;;;;2.33;2.10;;;28.30;98.70;;;;;;4965337;28;20589;-66
2023/08/13 12:41:41;;;;;;;2.60;1.85;;;28.50;98.60;;;;;;4965014;28;20305;-66
2023/08/13 12:44:09;;;;;;;3.80;2.33;;;28.60;97.70;;;;;;4965209;28;20211;-66
2023/08/13 12:46:36;;;;;;;2.95;2.15;;;28.30;98.20;;;;;;4965159;28;20222;-66
2023/08/13 12:49:04;;;;;;;2.30;1.67;;;28.50;98.30;;;;;;4965199;28;20682;-67
2023/08/13 12:51:31;;;;;;;3.17;2.00;;;28.70;98.50;;;;;;4951917;28;20599;-66